sensor_id;sensor_type;location;lat;lon;timestamp;pressure;altitude;pressure_sealevel;temperature;humidity
51687;BME280;37774;52.192;4.584;2022-09-02T00:01:27;101926.84;;;14.29;100.00
51687;BME280;37774;52.192;4.584;2022-09-02T00:03:56;101982.50;;;14.59;100.00
51687;BME280;37774;52.192;4.584;2022-09-02T00:06:23;101985.13;;;14.59;100.00
51687;BME280;37774;52.192;4.584;2022-09-02T00:08:50;101977.31;;;14.53;100.00
51687;BME280;37774;52.192;4.584;2022-09-02T00:11:21;101981.63;;;14.56;100.00
51687;BME280;37774;52.192;4.584;2022-09-02T00:13:49;101979.03;;;14.54;100.00
51687;BME280;37774;52.192;4.584;2022-09-02T00:16:16;101948.63;;;14.38;100.00
51687;BME280;37774;52.192;4.584;2022-09-02T00:18:43;101586.59;;;12.17;100.00
51687;BME280;37774;52.192;4.584;2022-09-02T00:21:10;101889.56;;;13.96;100.00
51687;BME280;37774;52.192;4.584;2022-09-02T00:23:38;101801.91;;;13.27;100.00
51687;BME280;37774;52.192;4.584;2022-09-02T00:26:05;101970.38;;;14.41;100.00
51687;BME280;37774;52.192;4.584;2022-09-02T00:28:34;101722.00;;;12.96;100.00
51687;BME280;37774;52.192;4.584;2022-09-02T00:31:00;101973.91;;;14.36;100.00
51687;BME280;37774;52.192;4.584;2022-09-02T00:33:27;101662.13;;;12.48;100.00
51687;BME280;37774;52.192;4.584;2022-09-02T00:35:57;101964.34;;;14.35;100.00
51687;BME280;37774;52.192;4.584;2022-09-02T00:38:24;101965.25;;;14.18;100.00
51687;BME280;37774;52.192;4.584;2022-09-02T00:40:51;101973.94;;;14.28;100.00
51687;BME280;37774;52.192;4.584;2022-09-02T00:43:24;101775.00;;;13.06;100.00
51687;BME280;37774;52.192;4.584;2022-09-02T00:45:52;101959.19;;;14.13;100.00
51687;BME280;37774;52.192;4.584;2022-09-02T00:48:20;101960.03;;;14.15;100.00
51687;BME280;37774;52.192;4.584;2022-09-02T00:50:47;101648.28;;;12.09;100.00
51687;BME280;37774;52.192;4.584;2022-09-02T00:53:15;101757.59;;;13.05;100.00
51687;BME280;37774;52.192;4.584;2022-09-02T00:55:51;101885.31;;;13.73;100.00
51687;BME280;37774;52.192;4.584;2022-09-02T00:58:21;101954.84;;;14.12;100.00
51687;BME280;37774;52.192;4.584;2022-09-02T01:00:53;101955.75;;;14.03;100.00
51687;BME280;37774;52.192;4.584;2022-09-02T01:03:23;101870.56;;;13.58;100.00
51687;BME280;37774;52.192;4.584;2022-09-02T01:05:52;101947.94;;;13.98;100.00
51687;BME280;37774;52.192;4.584;2022-09-02T01:08:23;101952.28;;;14.04;100.00
51687;BME280;37774;52.192;4.584;2022-09-02T01:10:51;101947.94;;;13.97;100.00
51687;BME280;37774;52.192;4.584;2022-09-02T01:13:23;101944.47;;;13.98;100.00
51687;BME280;37774;52.192;4.584;2022-09-02T01:15:54;101946.19;;;13.94;100.00
51687;BME280;37774;52.192;4.584;2022-09-02T01:18:23;101943.59;;;13.99;100.00
51687;BME280;37774;52.192;4.584;2022-09-02T01:20:53;101945.28;;;14.08;100.00
51687;BME280;37774;52.192;4.584;2022-09-02T01:23:22;101916.63;;;13.89;100.00
51687;BME280;37774;52.192;4.584;2022-09-02T01:25:49;101942.66;;;14.05;100.00
51687;BME280;37774;52.192;4.584;2022-09-02T01:28:17;101946.22;;;13.96;100.00
51687;BME280;37774;52.192;4.584;2022-09-02T01:30:48;101940.13;;;13.91;100.00
51687;BME280;37774;52.192;4.584;2022-09-02T01:33:17;101880.16;;;13.56;100.00
51687;BME280;37774;52.192;4.584;2022-09-02T01:35:44;101893.19;;;13.66;100.00
51687;BME280;37774;52.192;4.584;2022-09-02T01:38:11;101940.06;;;14.01;100.00
51687;BME280;37774;52.192;4.584;2022-09-02T01:40:40;101935.72;;;14.02;100.00
51687;BME280;37774;52.192;4.584;2022-09-02T01:43:09;101875.78;;;13.62;100.00
51687;BME280;37774;52.192;4.584;2022-09-02T01:45:37;101935.75;;;13.94;100.00
51687;BME280;37774;52.192;4.584;2022-09-02T01:48:06;101850.59;;;13.39;100.00
51687;BME280;37774;52.192;4.584;2022-09-02T01:50:35;101865.41;;;13.46;100.00
51687;BME280;37774;52.192;4.584;2022-09-02T01:53:03;101875.84;;;13.44;100.00
51687;BME280;37774;52.192;4.584;2022-09-02T01:55:30;101935.78;;;13.85;100.00
51687;BME280;37774;52.192;4.584;2022-09-02T01:57:59;101933.19;;;13.82;100.00
51687;BME280;37774;52.192;4.584;2022-09-02T02:00:26;101928.84;;;13.81;100.00
51687;BME280;37774;52.192;4.584;2022-09-02T02:02:53;101633.50;;;11.86;100.00
51687;BME280;37774;52.192;4.584;2022-09-02T02:05:21;101935.84;;;13.66;100.00
51687;BME280;37774;52.192;4.584;2022-09-02T02:07:48;101934.09;;;13.68;100.00
51687;BME280;37774;52.192;4.584;2022-09-02T02:10:17;101892.38;;;13.37;100.00
51687;BME280;37774;52.192;4.584;2022-09-02T02:12:44;101934.13;;;13.61;100.00
51687;BME280;37774;52.192;4.584;2022-09-02T02:15:15;101937.63;;;13.52;100.00
51687;BME280;37774;52.192;4.584;2022-09-02T02:17:42;101935.00;;;13.55;100.00
51687;BME280;37774;52.192;4.584;2022-09-02T02:20:10;101941.13;;;13.44;100.00
51687;BME280;37774;52.192;4.584;2022-09-02T02:22:38;101936.78;;;13.50;100.00
51687;BME280;37774;52.192;4.584;2022-09-02T02:25:06;101934.16;;;13.48;100.00
51687;BME280;37774;52.192;4.584;2022-09-02T02:27:33;101932.44;;;13.42;100.00
51687;BME280;37774;52.192;4.584;2022-09-02T02:30:00;101656.09;;;11.70;100.00
51687;BME280;37774;52.192;4.584;2022-09-02T02:32:28;101932.41;;;13.38;100.00
51687;BME280;37774;52.192;4.584;2022-09-02T02:34:56;101930.66;;;13.30;100.00
51687;BME280;37774;52.192;4.584;2022-09-02T02:37:24;101913.31;;;12.91;100.00
51687;BME280;37774;52.192;4.584;2022-09-02T02:39:50;101932.41;;;13.32;100.00
51687;BME280;37774;52.192;4.584;2022-09-02T02:42:17;101928.06;;;13.24;100.00
51687;BME280;37774;52.192;4.584;2022-09-02T02:44:44;101922.84;;;13.24;100.00
51687;BME280;37774;52.192;4.584;2022-09-02T02:47:11;101915.03;;;13.10;100.00
51687;BME280;37774;52.192;4.584;2022-09-02T02:49:40;101940.25;;;13.33;100.00
51687;BME280;37774;52.192;4.584;2022-09-02T02:52:09;101924.59;;;13.25;100.00
51687;BME280;37774;52.192;4.584;2022-09-02T02:54:36;101819.41;;;12.60;100.00
51687;BME280;37774;52.192;4.584;2022-09-02T02:57:05;101925.47;;;13.32;100.00
51687;BME280;37774;52.192;4.584;2022-09-02T02:59:32;101895.03;;;12.98;100.00
51687;BME280;37774;52.192;4.584;2022-09-02T03:01:59;101927.22;;;13.30;100.00
51687;BME280;37774;52.192;4.584;2022-09-02T03:04:26;101921.97;;;13.24;100.00
51687;BME280;37774;52.192;4.584;2022-09-02T03:06:54;101922.00;;;13.19;100.00
51687;BME280;37774;52.192;4.584;2022-09-02T03:09:21;101886.34;;;12.89;100.00
51687;BME280;37774;52.192;4.584;2022-09-02T03:11:48;101918.50;;;13.09;100.00
51687;BME280;37774;52.192;4.584;2022-09-02T03:14:15;101779.44;;;12.31;100.00
51687;BME280;37774;52.192;4.584;2022-09-02T03:16:43;101922.00;;;13.04;100.00
51687;BME280;37774;52.192;4.584;2022-09-02T03:19:10;101897.66;;;12.91;100.00
51687;BME280;37774;52.192;4.584;2022-09-02T03:21:38;101923.72;;;13.03;100.00
51687;BME280;37774;52.192;4.584;2022-09-02T03:24:08;101916.78;;;13.00;100.00
51687;BME280;37774;52.192;4.584;2022-09-02T03:26:35;101919.41;;;12.94;100.00
51687;BME280;37774;52.192;4.584;2022-09-02T03:29:02;101909.81;;;12.79;100.00
51687;BME280;37774;52.192;4.584;2022-09-02T03:31:29;101921.13;;;12.97;100.00
51687;BME280;37774;52.192;4.584;2022-09-02T03:33:55;101930.72;;;12.84;100.00
51687;BME280;37774;52.192;4.584;2022-09-02T03:36:24;101916.78;;;12.93;100.00
51687;BME280;37774;52.192;4.584;2022-09-02T03:38:52;101909.81;;;12.95;100.00
51687;BME280;37774;52.192;4.584;2022-09-02T03:41:20;101915.91;;;12.81;100.00
51687;BME280;37774;52.192;4.584;2022-09-02T03:43:48;101635.09;;;11.06;100.00
51687;BME280;37774;52.192;4.584;2022-09-02T03:46:15;101913.31;;;12.78;100.00
51687;BME280;37774;52.192;4.584;2022-09-02T03:48:42;101920.25;;;12.73;100.00
51687;BME280;37774;52.192;4.584;2022-09-02T03:51:09;101919.41;;;12.79;100.00
51687;BME280;37774;52.192;4.584;2022-09-02T03:53:36;101915.91;;;12.69;100.00
51687;BME280;37774;52.192;4.584;2022-09-02T03:56:04;101904.59;;;12.65;100.00
51687;BME280;37774;52.192;4.584;2022-09-02T03:58:33;101915.91;;;12.84;100.00
51687;BME280;37774;52.192;4.584;2022-09-02T04:01:00;101882.00;;;12.47;100.00
51687;BME280;37774;52.192;4.584;2022-09-02T04:03:27;101921.13;;;12.78;100.00
51687;BME280;37774;52.192;4.584;2022-09-02T04:05:54;101910.69;;;12.95;100.00
51687;BME280;37774;52.192;4.584;2022-09-02T04:08:22;101881.16;;;12.75;100.00
51687;BME280;37774;52.192;4.584;2022-09-02T04:10:49;101864.63;;;12.68;100.00
51687;BME280;37774;52.192;4.584;2022-09-02T04:13:16;101863.72;;;12.61;100.00
51687;BME280;37774;52.192;4.584;2022-09-02T04:15:44;101907.22;;;12.87;100.00
51687;BME280;37774;52.192;4.584;2022-09-02T04:18:14;101841.13;;;12.48;100.00
51687;BME280;37774;52.192;4.584;2022-09-02T04:20:41;101893.31;;;12.86;100.00
51687;BME280;37774;52.192;4.584;2022-09-02T04:23:08;101683.81;;;11.55;100.00
51687;BME280;37774;52.192;4.584;2022-09-02T04:25:39;101886.34;;;12.87;100.00
51687;BME280;37774;52.192;4.584;2022-09-02T04:28:06;101897.66;;;12.84;100.00
51687;BME280;37774;52.192;4.584;2022-09-02T04:30:33;101900.25;;;12.75;100.00
51687;BME280;37774;52.192;4.584;2022-09-02T04:33:01;101891.59;;;12.75;100.00
51687;BME280;37774;52.192;4.584;2022-09-02T04:35:28;101625.59;;;11.07;100.00
51687;BME280;37774;52.192;4.584;2022-09-02T04:37:55;101900.25;;;12.70;100.00
51687;BME280;37774;52.192;4.584;2022-09-02T04:40:21;101892.41;;;12.64;100.00
51687;BME280;37774;52.192;4.584;2022-09-02T04:42:49;101899.38;;;12.65;100.00
51687;BME280;37774;52.192;4.584;2022-09-02T04:45:18;101886.34;;;12.45;100.00
51687;BME280;37774;52.192;4.584;2022-09-02T04:47:44;101878.50;;;12.45;100.00
51687;BME280;37774;52.192;4.584;2022-09-02T04:50:13;101898.50;;;12.46;100.00
51687;BME280;37774;52.192;4.584;2022-09-02T04:52:39;101900.25;;;12.47;100.00
51687;BME280;37774;52.192;4.584;2022-09-02T04:55:07;101715.88;;;11.42;100.00
51687;BME280;37774;52.192;4.584;2022-09-02T04:57:35;101828.94;;;12.16;100.00
51687;BME280;37774;52.192;4.584;2022-09-02T05:00:03;101902.84;;;12.56;100.00
51687;BME280;37774;52.192;4.584;2022-09-02T05:02:30;101899.38;;;12.54;100.00
51687;BME280;37774;52.192;4.584;2022-09-02T05:04:57;101901.97;;;12.59;100.00
51687;BME280;37774;52.192;4.584;2022-09-02T05:07:28;101561.25;;;10.53;100.00
51687;BME280;37774;52.192;4.584;2022-09-02T05:09:56;101902.84;;;12.50;100.00
51687;BME280;37774;52.192;4.584;2022-09-02T05:12:23;101903.72;;;12.55;100.00
51687;BME280;37774;52.192;4.584;2022-09-02T05:14:52;101887.19;;;12.39;100.00
51687;BME280;37774;52.192;4.584;2022-09-02T05:17:20;101877.63;;;12.34;100.00
51687;BME280;37774;52.192;4.584;2022-09-02T05:19:47;101900.25;;;12.64;100.00
51687;BME280;37774;52.192;4.584;2022-09-02T05:22:14;101867.22;;;12.43;100.00
51687;BME280;37774;52.192;4.584;2022-09-02T05:24:42;101908.06;;;12.66;100.00
51687;BME280;37774;52.192;4.584;2022-09-02T05:27:09;101909.84;;;12.78;100.00
51687;BME280;37774;52.192;4.584;2022-09-02T05:29:36;101910.72;;;12.77;100.00
51687;BME280;37774;52.192;4.584;2022-09-02T05:32:03;101832.44;;;12.24;100.00
51687;BME280;37774;52.192;4.584;2022-09-02T05:34:32;101908.94;;;12.74;100.00
51687;BME280;37774;52.192;4.584;2022-09-02T05:37:00;101908.09;;;12.75;100.00
51687;BME280;37774;52.192;4.584;2022-09-02T05:39:27;101872.44;;;12.55;100.00
51687;BME280;37774;52.192;4.584;2022-09-02T05:41:56;101902.88;;;12.77;100.00
51687;BME280;37774;52.192;4.584;2022-09-02T05:44:23;101805.47;;;12.00;100.00
51687;BME280;37774;52.192;4.584;2022-09-02T05:46:50;101908.09;;;13.02;100.00
51687;BME280;37774;52.192;4.584;2022-09-02T05:49:17;101848.94;;;12.66;100.00
51687;BME280;37774;52.192;4.584;2022-09-02T05:51:47;101747.28;;;12.04;100.00
51687;BME280;37774;52.192;4.584;2022-09-02T05:54:17;101896.78;;;12.96;100.00
51687;BME280;37774;52.192;4.584;2022-09-02T05:56:48;101911.53;;;13.22;100.00
51687;BME280;37774;52.192;4.584;2022-09-02T05:59:17;101656.06;;;11.72;100.00
51687;BME280;37774;52.192;4.584;2022-09-02T06:01:45;101884.59;;;13.11;100.00
51687;BME280;37774;52.192;4.584;2022-09-02T06:04:13;101905.44;;;13.34;100.00
51687;BME280;37774;52.192;4.584;2022-09-02T06:06:40;101900.22;;;13.40;100.00
51687;BME280;37774;52.192;4.584;2022-09-02T06:09:08;101903.69;;;13.47;100.00
51687;BME280;37774;52.192;4.584;2022-09-02T06:11:37;101906.31;;;13.52;100.00
51687;BME280;37774;52.192;4.584;2022-09-02T06:14:04;101900.19;;;13.51;100.00
51687;BME280;37774;52.192;4.584;2022-09-02T06:16:34;101824.53;;;13.15;100.00
51687;BME280;37774;52.192;4.584;2022-09-02T06:19:01;101868.91;;;13.43;100.00
51687;BME280;37774;52.192;4.584;2022-09-02T06:21:29;101881.97;;;13.28;100.00
51687;BME280;37774;52.192;4.584;2022-09-02T06:23:56;101898.41;;;13.67;100.00
51687;BME280;37774;52.192;4.584;2022-09-02T06:26:23;101869.75;;;13.49;100.00
51687;BME280;37774;52.192;4.584;2022-09-02T06:28:50;101787.16;;;13.12;100.00
51687;BME280;37774;52.192;4.584;2022-09-02T06:31:19;101841.00;;;13.50;100.00
51687;BME280;37774;52.192;4.584;2022-09-02T06:33:47;101656.94;;;12.48;100.00
51687;BME280;37774;52.192;4.584;2022-09-02T06:36:17;101654.28;;;12.56;100.00
51687;BME280;37774;52.192;4.584;2022-09-02T06:38:45;101886.94;;;14.02;100.00
51687;BME280;37774;52.192;4.584;2022-09-02T06:41:20;101832.19;;;13.76;100.00
51687;BME280;37774;52.192;4.584;2022-09-02T06:43:48;101885.09;;;14.22;100.00
51687;BME280;37774;52.192;4.584;2022-09-02T06:46:16;101883.28;;;14.28;100.00
51687;BME280;37774;52.192;4.584;2022-09-02T06:48:43;101876.25;;;14.38;100.00
51687;BME280;37774;52.192;4.584;2022-09-02T06:51:16;101873.56;;;14.52;100.00
51687;BME280;37774;52.192;4.584;2022-09-02T06:53:43;101796.22;;;14.22;100.00
51687;BME280;37774;52.192;4.584;2022-09-02T06:56:10;101865.53;;;14.75;100.00
51687;BME280;37774;52.192;4.584;2022-09-02T06:58:37;101863.78;;;14.79;100.00
51687;BME280;37774;52.192;4.584;2022-09-02T07:01:04;101828.13;;;14.66;100.00
51687;BME280;37774;52.192;4.584;2022-09-02T07:03:32;101768.19;;;14.41;100.00
51687;BME280;37774;52.192;4.584;2022-09-02T07:06:18;101850.38;;;15.12;100.00
51687;BME280;37774;52.192;4.584;2022-09-02T07:08:45;101843.38;;;15.14;100.00
51687;BME280;37774;52.192;4.584;2022-09-02T07:11:15;101805.06;;;15.05;100.00
51687;BME280;37774;52.192;4.584;2022-09-02T07:13:42;101829.97;;;15.43;100.00
51687;BME280;37774;52.192;4.584;2022-09-02T07:16:09;101835.84;;;15.62;100.00
51687;BME280;37774;52.192;4.584;2022-09-02T07:18:36;101820.19;;;15.58;100.00
51687;BME280;37774;52.192;4.584;2022-09-02T07:21:03;101631.03;;;14.70;100.00
51687;BME280;37774;52.192;4.584;2022-09-02T07:23:31;101801.41;;;15.94;100.00
51687;BME280;37774;52.192;4.584;2022-09-02T07:25:58;101794.00;;;16.20;100.00
51687;BME280;37774;52.192;4.584;2022-09-02T07:28:25;101733.88;;;16.08;100.00
51687;BME280;37774;52.192;4.584;2022-09-02T07:30:52;101815.09;;;16.68;100.00
51687;BME280;37774;52.192;4.584;2022-09-02T07:33:20;101772.19;;;16.69;100.00
51687;BME280;37774;52.192;4.584;2022-09-02T07:35:48;101805.56;;;17.11;100.00
51687;BME280;37774;52.192;4.584;2022-09-02T07:38:16;101796.25;;;17.38;100.00
51687;BME280;37774;52.192;4.584;2022-09-02T07:40:44;101789.72;;;17.58;100.00
51687;BME280;37774;52.192;4.584;2022-09-02T07:43:13;101728.47;;;17.15;100.00
51687;BME280;37774;52.192;4.584;2022-09-02T07:45:40;101772.19;;;17.58;100.00
51687;BME280;37774;52.192;4.584;2022-09-02T07:48:08;101761.22;;;17.78;100.00
51687;BME280;37774;52.192;4.584;2022-09-02T07:50:35;101750.72;;;17.78;100.00
51687;BME280;37774;52.192;4.584;2022-09-02T07:53:02;101746.91;;;17.90;100.00
51687;BME280;37774;52.192;4.584;2022-09-02T07:55:31;101743.31;;;17.94;100.00
51687;BME280;37774;52.192;4.584;2022-09-02T07:58:02;101715.03;;;18.06;100.00
51687;BME280;37774;52.192;4.584;2022-09-02T08:00:29;101742.81;;;18.51;100.00
51687;BME280;37774;52.192;4.584;2022-09-02T08:02:56;101741.59;;;18.64;100.00
51687;BME280;37774;52.192;4.584;2022-09-02T08:05:23;101733.13;;;18.84;100.00
51687;BME280;37774;52.192;4.584;2022-09-02T08:07:50;101720.53;;;18.97;100.00
51687;BME280;37774;52.192;4.584;2022-09-02T08:10:18;101611.53;;;18.40;100.00
51687;BME280;37774;52.192;4.584;2022-09-02T08:12:46;101695.81;;;19.02;100.00
51687;BME280;37774;52.192;4.584;2022-09-02T08:15:15;101720.44;;;19.01;100.00
51687;BME280;37774;52.192;4.584;2022-09-02T08:17:44;101706.50;;;19.27;100.00
51687;BME280;37774;52.192;4.584;2022-09-02T08:20:12;101712.56;;;19.58;100.00
51687;BME280;37774;52.192;4.584;2022-09-02T08:22:39;101681.50;;;19.67;100.00
51687;BME280;37774;52.192;4.584;2022-09-02T08:25:07;101709.50;;;20.00;100.00
51687;BME280;37774;52.192;4.584;2022-09-02T08:27:35;101472.66;;;18.78;100.00
51687;BME280;37774;52.192;4.584;2022-09-02T08:30:02;101698.63;;;20.09;100.00
51687;BME280;37774;52.192;4.584;2022-09-02T08:32:31;101694.00;;;20.41;100.00
51687;BME280;37774;52.192;4.584;2022-09-02T08:34:57;101704.56;;;20.41;100.00
51687;BME280;37774;52.192;4.584;2022-09-02T08:37:27;101688.13;;;20.58;100.00
51687;BME280;37774;52.192;4.584;2022-09-02T08:39:55;101690.66;;;20.87;100.00
51687;BME280;37774;52.192;4.584;2022-09-02T08:42:26;101693.06;;;21.15;100.00
51687;BME280;37774;52.192;4.584;2022-09-02T08:44:59;101683.06;;;21.01;100.00
51687;BME280;37774;52.192;4.584;2022-09-02T08:47:32;101675.25;;;20.98;100.00
51687;BME280;37774;52.192;4.584;2022-09-02T08:50:05;101669.94;;;21.22;100.00
51687;BME280;37774;52.192;4.584;2022-09-02T08:52:40;101585.97;;;20.84;100.00
51687;BME280;37774;52.192;4.584;2022-09-02T08:55:11;101613.25;;;21.07;100.00
51687;BME280;37774;52.192;4.584;2022-09-02T08:57:39;101647.00;;;21.45;100.00
51687;BME280;37774;52.192;4.584;2022-09-02T09:00:08;101657.59;;;21.23;100.00
51687;BME280;37774;52.192;4.584;2022-09-02T09:02:45;101652.03;;;21.51;100.00
51687;BME280;37774;52.192;4.584;2022-09-02T09:05:26;101653.09;;;21.47;100.00
51687;BME280;37774;52.192;4.584;2022-09-02T09:08:05;101356.03;;;20.00;100.00
51687;BME280;37774;52.192;4.584;2022-09-02T09:10:41;101646.94;;;21.69;100.00
51687;BME280;37774;52.192;4.584;2022-09-02T09:13:22;101635.91;;;21.80;100.00
51687;BME280;37774;52.192;4.584;2022-09-02T09:15:55;101615.09;;;22.13;100.00
51687;BME280;37774;52.192;4.584;2022-09-02T09:18:32;101627.84;;;22.45;100.00
51687;BME280;37774;52.192;4.584;2022-09-02T09:21:02;101599.66;;;22.42;100.00
51687;BME280;37774;52.192;4.584;2022-09-02T09:23:30;101426.09;;;21.79;100.00
51687;BME280;37774;52.192;4.584;2022-09-02T09:26:04;101614.31;;;23.09;100.00
51687;BME280;37774;52.192;4.584;2022-09-02T09:28:36;101610.44;;;23.16;100.00
51687;BME280;37774;52.192;4.584;2022-09-02T09:31:08;101611.69;;;23.63;100.00
51687;BME280;37774;52.192;4.584;2022-09-02T09:33:38;101550.38;;;23.34;100.00
51687;BME280;37774;52.192;4.584;2022-09-02T09:36:06;101572.06;;;23.60;100.00
51687;BME280;37774;52.192;4.584;2022-09-02T09:38:35;101348.25;;;22.22;100.00
51687;BME280;37774;52.192;4.584;2022-09-02T09:41:18;101604.09;;;23.73;100.00
51687;BME280;37774;52.192;4.584;2022-09-02T09:43:46;101547.78;;;23.13;100.00
51687;BME280;37774;52.192;4.584;2022-09-02T09:46:24;101457.97;;;23.07;100.00
51687;BME280;37774;52.192;4.584;2022-09-02T09:48:53;101579.53;;;23.34;100.00
51687;BME280;37774;52.192;4.584;2022-09-02T09:51:20;101582.97;;;23.54;100.00
51687;BME280;37774;52.192;4.584;2022-09-02T09:53:47;101594.94;;;24.14;100.00
51687;BME280;37774;52.192;4.584;2022-09-02T09:56:29;101564.75;;;23.99;100.00
51687;BME280;37774;52.192;4.584;2022-09-02T09:58:59;101379.34;;;23.08;100.00
51687;BME280;37774;52.192;4.584;2022-09-02T10:01:29;101528.44;;;23.99;100.00
51687;BME280;37774;52.192;4.584;2022-09-02T10:04:01;101586.03;;;24.48;100.00
51687;BME280;37774;52.192;4.584;2022-09-02T10:06:39;101580.75;;;24.80;100.00
51687;BME280;37774;52.192;4.584;2022-09-02T10:09:27;101569.38;;;25.25;100.00
51687;BME280;37774;52.192;4.584;2022-09-02T10:11:56;101249.97;;;22.98;100.00
51687;BME280;37774;52.192;4.584;2022-09-02T10:14:25;101436.75;;;23.93;100.00
51687;BME280;37774;52.192;4.584;2022-09-02T10:17:01;101578.59;;;25.34;100.00
51687;BME280;37774;52.192;4.584;2022-09-02T10:19:38;101424.59;;;23.89;100.00
51687;BME280;37774;52.192;4.584;2022-09-02T10:22:30;101574.94;;;24.74;100.00
51687;BME280;37774;52.192;4.584;2022-09-02T10:25:06;101546.81;;;25.63;100.00
51687;BME280;37774;52.192;4.584;2022-09-02T10:27:47;101549.66;;;25.60;100.00
51687;BME280;37774;52.192;4.584;2022-09-02T10:30:19;101351.00;;;24.70;100.00
51687;BME280;37774;52.192;4.584;2022-09-02T10:33:11;101548.09;;;26.15;100.00
51687;BME280;37774;52.192;4.584;2022-09-02T10:35:45;101545.81;;;26.23;100.00
51687;BME280;37774;52.192;4.584;2022-09-02T10:38:25;101499.84;;;25.91;100.00
51687;BME280;37774;52.192;4.584;2022-09-02T10:40:58;101566.34;;;26.07;100.00
51687;BME280;37774;52.192;4.584;2022-09-02T10:43:35;101542.59;;;26.18;100.00
51687;BME280;37774;52.192;4.584;2022-09-02T10:46:08;101371.28;;;25.47;100.00
51687;BME280;37774;52.192;4.584;2022-09-02T10:48:44;101526.41;;;26.63;100.00
51687;BME280;37774;52.192;4.584;2022-09-02T10:51:21;101519.75;;;26.29;100.00
51687;BME280;37774;52.192;4.584;2022-09-02T10:54:02;101517.13;;;26.83;100.00
51687;BME280;37774;52.192;4.584;2022-09-02T10:56:39;101526.22;;;26.66;100.00
51687;BME280;37774;52.192;4.584;2022-09-02T10:59:10;101524.00;;;26.31;100.00
51687;BME280;37774;52.192;4.584;2022-09-02T11:01:43;101482.72;;;26.24;100.00
51687;BME280;37774;52.192;4.584;2022-09-02T11:04:19;101512.00;;;27.21;100.00
51687;BME280;37774;52.192;4.584;2022-09-02T11:06:49;101379.09;;;26.34;100.00
51687;BME280;37774;52.192;4.584;2022-09-02T11:09:25;101506.63;;;27.61;100.00
51687;BME280;37774;52.192;4.584;2022-09-02T11:11:56;101357.06;;;26.98;100.00
51687;BME280;37774;52.192;4.584;2022-09-02T11:14:27;101473.28;;;27.93;100.00
51687;BME280;37774;52.192;4.584;2022-09-02T11:17:03;101439.59;;;27.53;100.00
51687;BME280;37774;52.192;4.584;2022-09-02T11:19:35;101496.38;;;27.55;100.00
51687;BME280;37774;52.192;4.584;2022-09-02T11:22:13;101242.44;;;26.06;100.00
51687;BME280;37774;52.192;4.584;2022-09-02T11:24:46;101489.38;;;27.14;100.00
51687;BME280;37774;52.192;4.584;2022-09-02T11:27:23;101486.28;;;27.97;100.00
51687;BME280;37774;52.192;4.584;2022-09-02T11:29:59;101444.50;;;28.22;100.00
51687;BME280;37774;52.192;4.584;2022-09-02T11:32:32;101321.34;;;27.14;100.00
51687;BME280;37774;52.192;4.584;2022-09-02T11:35:04;101474.56;;;28.62;100.00
51687;BME280;37774;52.192;4.584;2022-09-02T11:37:40;101471.72;;;28.27;100.00
51687;BME280;37774;52.192;4.584;2022-09-02T11:40:12;101375.41;;;27.54;100.00
51687;BME280;37774;52.192;4.584;2022-09-02T11:46:11;101455.75;;;28.88;100.00
51687;BME280;37774;52.192;4.584;2022-09-02T11:49:02;101394.13;;;28.65;100.00
51687;BME280;37774;52.192;4.584;2022-09-02T11:51:53;101377.13;;;28.66;98.50
51687;BME280;37774;52.192;4.584;2022-09-02T11:54:26;101409.75;;;28.22;97.02
51687;BME280;37774;52.192;4.584;2022-09-02T11:56:57;101442.84;;;28.81;94.58
51687;BME280;37774;52.192;4.584;2022-09-02T12:02:34;101366.69;;;27.90;94.53
51687;BME280;37774;52.192;4.584;2022-09-02T12:08:10;101370.88;;;27.81;100.00
51687;BME280;37774;52.192;4.584;2022-09-02T12:11:02;101411.13;;;28.88;92.95
51687;BME280;37774;52.192;4.584;2022-09-02T12:13:33;101423.59;;;28.76;92.87
51687;BME280;37774;52.192;4.584;2022-09-02T12:16:35;101414.72;;;28.76;88.19
51687;BME280;37774;52.192;4.584;2022-09-02T12:19:27;101425.38;;;28.03;82.14
51687;BME280;37774;52.192;4.584;2022-09-02T12:22:20;101405.63;;;28.78;83.97
51687;BME280;37774;52.192;4.584;2022-09-02T12:24:51;101382.47;;;28.66;84.96
51687;BME280;37774;52.192;4.584;2022-09-02T12:27:23;101139.50;;;26.95;89.39
51687;BME280;37774;52.192;4.584;2022-09-02T12:29:50;101341.81;;;28.13;84.66
51687;BME280;37774;52.192;4.584;2022-09-02T12:35:32;101361.91;;;28.55;83.30
51687;BME280;37774;52.192;4.584;2022-09-02T12:38:36;101397.66;;;29.12;80.80
51687;BME280;37774;52.192;4.584;2022-09-02T12:41:22;101350.47;;;29.00;79.42
51687;BME280;37774;52.192;4.584;2022-09-02T12:44:02;101389.72;;;28.52;75.17
51687;BME280;37774;52.192;4.584;2022-09-02T12:46:47;101381.59;;;29.01;78.55
51687;BME280;37774;52.192;4.584;2022-09-02T12:49:28;101249.75;;;28.42;74.35
51687;BME280;37774;52.192;4.584;2022-09-02T12:52:00;101229.31;;;27.69;66.56
51687;BME280;37774;52.192;4.584;2022-09-02T12:54:35;101271.00;;;27.83;70.17
51687;BME280;37774;52.192;4.584;2022-09-02T12:57:02;101350.59;;;28.51;71.78
51687;BME280;37774;52.192;4.584;2022-09-02T12:59:32;101372.84;;;28.99;73.55
51687;BME280;37774;52.192;4.584;2022-09-02T13:02:35;101362.16;;;28.99;65.48
51687;BME280;37774;52.192;4.584;2022-09-02T13:05:15;101347.00;;;28.75;62.39
51687;BME280;37774;52.192;4.584;2022-09-02T13:11:25;101314.50;;;28.46;60.98
51687;BME280;37774;52.192;4.584;2022-09-02T13:14:21;101360.22;;;29.12;64.92